createdAt,value
2019-03-27T00:01:42.058Z,7.20
2019-03-27T00:04:15.758Z,7.20
2019-03-27T00:06:49.279Z,7.30
2019-03-27T00:09:22.418Z,7.30
2019-03-27T00:11:55.118Z,7.30
2019-03-27T00:14:28.458Z,7.30
2019-03-27T00:17:01.298Z,7.30
2019-03-27T00:19:35.419Z,7.30
2019-03-27T00:22:09.479Z,7.30
2019-03-27T00:24:43.120Z,7.30
2019-03-27T00:27:16.380Z,7.50
2019-03-27T00:29:49.919Z,7.40
2019-03-27T00:32:23.899Z,7.40
2019-03-27T00:34:57.299Z,7.30
2019-03-27T00:37:30.800Z,7.40
2019-03-27T00:40:04.279Z,7.40
2019-03-27T00:42:37.220Z,7.50
2019-03-27T00:45:25.519Z,7.60
2019-03-27T00:47:46.219Z,7.60
2019-03-27T00:50:19.923Z,7.60
2019-03-27T00:52:53.440Z,7.50
2019-03-27T00:55:25.778Z,7.40
2019-03-27T00:57:58.338Z,7.50
2019-03-27T01:00:35.918Z,7.50
2019-03-27T01:03:09.258Z,7.40
2019-03-27T01:05:42.778Z,7.30
2019-03-27T01:08:16.340Z,7.30
2019-03-27T01:10:49.199Z,7.20
2019-03-27T01:13:22.799Z,7.20
2019-03-27T01:15:56.740Z,7.20
2019-03-27T01:18:30.501Z,7.20
2019-03-27T01:21:02.979Z,7.20
2019-03-27T01:23:36.340Z,7.20
2019-03-27T01:26:09.261Z,7.10
2019-03-27T01:28:41.618Z,7.00
2019-03-27T01:31:14.358Z,7.00
2019-03-27T01:33:46.958Z,6.90
2019-03-27T01:36:20.159Z,7.00
2019-03-27T01:38:53.258Z,7.10
2019-03-27T01:41:26.098Z,7.10
2019-03-27T01:43:58.787Z,7.20
2019-03-27T01:46:32.623Z,7.20
2019-03-27T01:49:05.239Z,7.10
2019-03-27T01:51:38.520Z,7.00
2019-03-27T01:54:11.121Z,7.10
2019-03-27T01:56:44.799Z,7.10
2019-03-27T01:59:17.480Z,7.10
2019-03-27T02:01:51.439Z,7.10
2019-03-27T02:04:25.579Z,7.10
2019-03-27T02:06:59.338Z,7.20
2019-03-27T02:09:32.741Z,7.20
2019-03-27T02:12:06.358Z,7.20
2019-03-27T02:14:40.198Z,7.20
2019-03-27T02:17:13.822Z,7.20
2019-03-27T02:19:47.382Z,7.30
2019-03-27T02:22:21.019Z,7.30
2019-03-27T02:24:55.498Z,7.30
2019-03-27T02:27:29.039Z,7.40
2019-03-27T02:30:02.644Z,7.40
2019-03-27T02:32:35.658Z,7.40
2019-03-27T02:35:08.719Z,7.40
2019-03-27T02:37:41.560Z,7.30
2019-03-27T02:40:14.638Z,7.30
2019-03-27T02:42:48.699Z,7.30
2019-03-27T02:45:21.385Z,7.20
2019-03-27T02:47:55.140Z,7.10
2019-03-27T02:50:29.100Z,7.10
2019-03-27T02:53:02.640Z,7.00
2019-03-27T02:55:36.222Z,6.90
2019-03-27T02:58:10.359Z,6.90
2019-03-27T03:00:44.302Z,6.80
2019-03-27T03:03:18.379Z,6.80
2019-03-27T03:05:51.780Z,6.80
2019-03-27T03:08:24.778Z,6.80
2019-03-27T03:10:58.378Z,6.90
2019-03-27T03:13:31.599Z,6.90
2019-03-27T03:16:04.401Z,6.90
2019-03-27T03:18:37.678Z,6.90
2019-03-27T03:21:11.038Z,6.90
2019-03-27T03:23:44.245Z,7.00
2019-03-27T03:26:17.481Z,7.10
2019-03-27T03:28:50.803Z,7.20
2019-03-27T03:31:24.431Z,7.20
2019-03-27T03:33:58.320Z,7.30
2019-03-27T03:36:31.347Z,7.40
2019-03-27T03:39:05.202Z,7.50
2019-03-27T03:41:38.820Z,7.50
2019-03-27T03:44:12.402Z,7.50
2019-03-27T03:46:58.731Z,7.50
2019-03-27T03:49:20.659Z,7.50
2019-03-27T03:51:54.242Z,7.50
2019-03-27T03:54:27.918Z,7.60
2019-03-27T03:57:01.678Z,7.60
2019-03-27T03:59:35.726Z,7.60
2019-03-27T04:02:09.159Z,7.60
2019-03-27T04:04:43.440Z,7.60
2019-03-27T04:07:17.267Z,7.70
2019-03-27T04:09:50.664Z,7.60
2019-03-27T04:12:23.900Z,7.50
2019-03-27T04:14:57.519Z,7.60
2019-03-27T04:17:30.858Z,7.60
2019-03-27T04:20:04.406Z,7.50
2019-03-27T04:22:37.445Z,7.50
2019-03-27T04:25:11.298Z,7.40
2019-03-27T04:27:45.119Z,7.30
2019-03-27T04:30:18.899Z,7.20
2019-03-27T04:32:53.007Z,7.20
2019-03-27T04:35:26.649Z,7.20
2019-03-27T04:38:00.201Z,7.20
2019-03-27T04:40:33.519Z,7.30
2019-03-27T04:43:09.539Z,7.40
2019-03-27T04:45:41.999Z,7.40
2019-03-27T04:48:15.059Z,7.40
2019-03-27T04:50:48.498Z,7.40
2019-03-27T04:53:22.078Z,7.50
2019-03-27T04:55:55.018Z,7.40
2019-03-27T04:58:26.558Z,7.40
2019-03-27T05:01:00.299Z,7.30
2019-03-27T05:03:33.045Z,7.20
2019-03-27T05:06:06.959Z,7.10
2019-03-27T05:08:40.439Z,7.10
2019-03-27T05:11:12.878Z,7.10
2019-03-27T05:13:45.879Z,7.10
2019-03-27T05:16:19.061Z,7.10
2019-03-27T05:18:52.018Z,7.10
2019-03-27T05:21:25.400Z,7.20
2019-03-27T05:23:58.479Z,7.10
2019-03-27T05:26:31.638Z,7.10
2019-03-27T05:29:04.621Z,7.10
2019-03-27T05:31:38.498Z,7.10
2019-03-27T05:34:11.701Z,7.10
2019-03-27T05:36:45.100Z,7.00
2019-03-27T05:39:18.820Z,7.10
2019-03-27T05:41:51.923Z,7.10
2019-03-27T05:44:25.552Z,7.10
2019-03-27T05:47:00.079Z,7.00
2019-03-27T05:49:34.059Z,7.00
2019-03-27T05:52:07.718Z,6.90
2019-03-27T05:54:41.218Z,6.90
2019-03-27T05:57:14.480Z,6.90
2019-03-27T05:59:48.098Z,6.90
2019-03-27T06:02:21.998Z,6.90
2019-03-27T06:04:55.923Z,7.00
2019-03-27T06:07:28.279Z,7.00
2019-03-27T06:10:01.199Z,7.00
2019-03-27T06:12:34.199Z,6.90
2019-03-27T06:15:07.819Z,6.90
2019-03-27T06:17:40.959Z,6.90
2019-03-27T06:20:14.478Z,6.90
2019-03-27T06:22:48.202Z,6.90
2019-03-27T06:25:22.382Z,6.80
2019-03-27T06:27:55.907Z,6.80
2019-03-27T06:30:29.378Z,6.80
2019-03-27T06:33:02.905Z,6.90
2019-03-27T06:35:35.918Z,6.90
2019-03-27T06:38:09.186Z,6.90
2019-03-27T06:40:42.679Z,7.00
2019-03-27T06:43:15.981Z,7.10
2019-03-27T06:45:49.659Z,7.10
2019-03-27T06:48:26.339Z,7.20
2019-03-27T06:50:58.039Z,7.20
2019-03-27T06:53:31.138Z,7.40
2019-03-27T06:56:04.659Z,7.40
2019-03-27T06:58:38.559Z,7.60
2019-03-27T07:01:11.501Z,7.70
2019-03-27T07:03:44.583Z,7.90
2019-03-27T07:06:17.177Z,8.00
2019-03-27T07:08:50.240Z,8.10
2019-03-27T07:11:23.939Z,8.20
2019-03-27T07:13:57.263Z,8.40
2019-03-27T07:16:30.958Z,8.40
2019-03-27T07:19:04.879Z,8.50
2019-03-27T07:21:38.580Z,8.60
2019-03-27T07:24:12.139Z,8.70
2019-03-27T07:26:45.502Z,8.70
2019-03-27T07:29:19.231Z,8.70
2019-03-27T07:31:53.479Z,8.70
2019-03-27T07:34:27.119Z,8.70
2019-03-27T07:37:00.679Z,8.70
2019-03-27T07:39:34.298Z,8.80
2019-03-27T07:42:08.042Z,8.90
2019-03-27T07:44:41.859Z,8.90
2019-03-27T07:47:15.599Z,8.90
2019-03-27T07:49:49.560Z,9.00
2019-03-27T07:52:22.878Z,9.10
2019-03-27T07:54:56.299Z,9.10
2019-03-27T07:57:29.704Z,9.10
2019-03-27T08:00:03.500Z,9.20
2019-03-27T08:02:37.859Z,9.10
2019-03-27T08:05:11.925Z,9.10
2019-03-27T08:07:45.419Z,9.20
2019-03-27T08:10:18.479Z,9.30
2019-03-27T08:12:50.579Z,9.30
2019-03-27T08:15:23.900Z,9.40
2019-03-27T08:17:56.734Z,9.50
2019-03-27T08:20:30.599Z,9.50
2019-03-27T08:23:03.401Z,9.50
2019-03-27T08:25:37.599Z,9.50
2019-03-27T08:28:10.359Z,9.50
2019-03-27T08:30:44.238Z,9.50
2019-03-27T08:33:17.519Z,9.60
2019-03-27T08:35:50.219Z,9.60
2019-03-27T08:38:23.079Z,9.70
2019-03-27T08:40:56.239Z,9.70
2019-03-27T08:43:28.967Z,9.60
2019-03-27T08:46:02.699Z,9.60
2019-03-27T08:48:35.499Z,9.60
2019-03-27T08:51:11.419Z,9.60
2019-03-27T08:53:44.379Z,9.80
2019-03-27T08:56:18.539Z,9.90
2019-03-27T08:58:52.078Z,10.00
2019-03-27T09:01:25.461Z,9.90
2019-03-27T09:03:58.223Z,10.00
2019-03-27T09:06:33.919Z,10.10
2019-03-27T09:09:06.805Z,10.20
2019-03-27T09:11:40.718Z,10.10
2019-03-27T09:14:13.559Z,10.20
2019-03-27T09:16:47.016Z,10.20
2019-03-27T09:19:34.598Z,10.30
2019-03-27T09:21:56.277Z,10.30
2019-03-27T09:24:29.915Z,10.30
2019-03-27T09:27:03.075Z,10.30
2019-03-27T09:29:36.575Z,10.40
2019-03-27T09:32:09.835Z,10.50
2019-03-27T09:34:42.415Z,10.40
2019-03-27T09:37:15.295Z,10.50
2019-03-27T09:39:48.715Z,10.40
2019-03-27T09:42:22.315Z,10.40
2019-03-27T09:44:55.836Z,10.50
2019-03-27T09:47:29.259Z,10.70
2019-03-27T09:50:03.075Z,10.90
2019-03-27T09:52:36.856Z,10.90
2019-03-27T09:55:15.295Z,11.00
2019-03-27T09:57:48.720Z,11.20
2019-03-27T10:00:31.061Z,11.20
2019-03-27T10:03:04.082Z,11.20
2019-03-27T10:05:37.719Z,11.30
2019-03-27T10:08:11.023Z,11.30
2019-03-27T10:10:43.822Z,11.20
2019-03-27T10:13:17.368Z,11.00
2019-03-27T10:15:50.360Z,11.00
2019-03-27T10:18:25.940Z,10.90
2019-03-27T10:20:58.641Z,10.70
2019-03-27T10:23:31.880Z,10.70
2019-03-27T10:26:05.284Z,10.80
2019-03-27T10:28:38.241Z,11.00
2019-03-27T10:31:11.920Z,11.20
2019-03-27T10:33:45.640Z,11.30
2019-03-27T10:36:19.760Z,11.20
2019-03-27T10:38:53.081Z,11.20
2019-03-27T10:41:26.120Z,11.10
2019-03-27T10:43:59.440Z,11.10
2019-03-27T10:46:32.962Z,11.10
2019-03-27T10:49:05.799Z,11.10
2019-03-27T10:51:37.980Z,11.00
2019-03-27T10:54:11.620Z,11.10
2019-03-27T10:56:44.719Z,11.20
2019-03-27T10:59:18.003Z,11.50
2019-03-27T11:01:50.320Z,11.70
2019-03-27T11:04:23.541Z,11.70
2019-03-27T11:06:56.800Z,11.80
2019-03-27T11:09:29.543Z,11.80
2019-03-27T11:12:03.700Z,12.00
2019-03-27T11:14:38.451Z,12.50
2019-03-27T11:17:11.751Z,12.80
2019-03-27T11:19:45.842Z,13.10
2019-03-27T11:22:19.419Z,13.50
2019-03-27T11:24:53.339Z,13.60
2019-03-27T11:27:26.800Z,13.60
2019-03-27T11:29:59.919Z,13.50
2019-03-27T11:32:32.962Z,13.70
2019-03-27T11:35:06.479Z,13.60
2019-03-27T11:37:39.210Z,13.60
2019-03-27T11:40:12.721Z,13.60
2019-03-27T11:42:45.962Z,13.70
2019-03-27T11:45:18.999Z,13.60
2019-03-27T11:47:51.937Z,13.60
2019-03-27T11:50:25.082Z,13.50
2019-03-27T11:52:57.946Z,13.40
2019-03-27T11:55:31.203Z,13.50
2019-03-27T11:58:04.406Z,13.30
2019-03-27T12:00:38.583Z,13.50
2019-03-27T12:03:11.605Z,13.70
2019-03-27T12:05:45.854Z,13.80
2019-03-27T12:08:19.103Z,14.00
2019-03-27T12:10:52.999Z,13.80
2019-03-27T12:13:27.009Z,13.70
2019-03-27T12:16:00.549Z,13.60
2019-03-27T12:18:34.501Z,13.50
2019-03-27T12:21:08.179Z,13.40
2019-03-27T12:23:41.409Z,13.30
2019-03-27T12:26:15.913Z,13.20
2019-03-27T12:28:49.429Z,13.10
2019-03-27T12:31:23.569Z,13.10
2019-03-27T12:33:57.470Z,13.10
2019-03-27T12:36:30.729Z,13.10
2019-03-27T12:39:05.509Z,13.10
2019-03-27T12:41:38.489Z,13.10
2019-03-27T12:44:13.429Z,13.10
2019-03-27T12:46:46.449Z,13.20
2019-03-27T12:49:19.850Z,13.20
2019-03-27T12:51:54.151Z,13.10
2019-03-27T12:54:27.109Z,13.20
2019-03-27T12:57:01.113Z,13.10
2019-03-27T12:59:34.069Z,13.00
2019-03-27T13:02:08.232Z,13.10
2019-03-27T13:04:42.250Z,13.10
2019-03-27T13:07:15.589Z,13.00
2019-03-27T13:09:47.549Z,12.90
2019-03-27T13:12:20.629Z,12.80
2019-03-27T13:14:53.630Z,12.60
2019-03-27T13:17:27.052Z,12.50
2019-03-27T13:20:00.770Z,12.60
2019-03-27T13:22:34.251Z,12.60
2019-03-27T13:25:08.704Z,12.60
2019-03-27T13:27:41.350Z,12.60
2019-03-27T13:30:15.089Z,12.70
2019-03-27T13:32:48.630Z,12.80
2019-03-27T13:35:22.309Z,12.80
2019-03-27T13:37:56.390Z,12.60
2019-03-27T13:40:30.430Z,12.60
2019-03-27T13:43:03.552Z,12.60
2019-03-27T13:45:36.889Z,12.80
2019-03-27T13:48:09.429Z,12.70
2019-03-27T13:50:42.532Z,12.80
2019-03-27T13:53:15.769Z,12.80
2019-03-27T13:55:49.250Z,12.80
2019-03-27T13:58:21.989Z,12.70
2019-03-27T14:00:54.631Z,12.70
2019-03-27T14:03:28.293Z,12.90
2019-03-27T14:06:01.510Z,12.90
2019-03-27T14:08:34.829Z,12.80
2019-03-27T14:11:08.509Z,12.80
2019-03-27T14:13:43.426Z,12.90
2019-03-27T14:16:16.929Z,13.00
2019-03-27T14:18:49.389Z,13.10
2019-03-27T14:21:23.443Z,13.20
2019-03-27T14:23:57.348Z,13.20
2019-03-27T14:26:44.019Z,13.30
2019-03-27T14:29:05.690Z,13.30
2019-03-27T14:31:38.356Z,13.20
2019-03-27T14:34:12.091Z,13.10
2019-03-27T14:36:45.529Z,13.20
2019-03-27T14:39:18.628Z,13.10
2019-03-27T14:41:52.590Z,13.10
2019-03-27T14:44:26.357Z,13.00
2019-03-27T14:46:58.470Z,13.00
2019-03-27T14:49:31.132Z,12.90
2019-03-27T14:52:08.505Z,12.90
2019-03-27T14:54:38.310Z,12.90
2019-03-27T14:57:11.709Z,12.80
2019-03-27T14:59:44.989Z,12.90
2019-03-27T15:02:18.050Z,12.90
2019-03-27T15:04:50.789Z,12.80
2019-03-27T15:07:23.091Z,12.60
2019-03-27T15:09:56.311Z,12.60
2019-03-27T15:12:30.311Z,12.50
2019-03-27T15:15:04.029Z,12.40
2019-03-27T15:17:37.551Z,12.50
2019-03-27T15:20:12.389Z,12.50
2019-03-27T15:22:45.733Z,12.60
2019-03-27T15:25:19.251Z,12.60
2019-03-27T15:27:52.435Z,12.50
2019-03-27T15:30:31.173Z,12.40
2019-03-27T15:33:04.509Z,12.40
2019-03-27T15:35:37.189Z,12.50
2019-03-27T15:38:10.250Z,12.50
2019-03-27T15:40:43.853Z,12.60
2019-03-27T15:43:16.868Z,12.60
2019-03-27T15:45:50.309Z,12.50
2019-03-27T15:48:23.388Z,12.50
2019-03-27T15:50:58.882Z,12.50
2019-03-27T15:53:31.689Z,12.40
2019-03-27T15:56:05.622Z,12.20
2019-03-27T15:58:38.946Z,12.10
2019-03-27T16:01:12.582Z,12.20
2019-03-27T16:03:45.940Z,12.20
2019-03-27T16:06:19.100Z,12.30
2019-03-27T16:08:51.764Z,12.30
2019-03-27T16:11:25.279Z,12.40
2019-03-27T16:13:59.159Z,12.20
2019-03-27T16:16:32.779Z,12.10
2019-03-27T16:19:06.198Z,12.10
2019-03-27T16:21:38.799Z,12.10
2019-03-27T16:24:11.815Z,12.10
2019-03-27T16:26:48.354Z,12.10
2019-03-27T16:29:19.880Z,12.10
2019-03-27T16:31:53.690Z,12.00
2019-03-27T16:34:27.208Z,12.00
2019-03-27T16:36:59.977Z,11.80
2019-03-27T16:39:32.517Z,11.90
2019-03-27T16:42:05.337Z,11.80
2019-03-27T16:44:38.503Z,11.80
2019-03-27T16:47:11.909Z,11.80
2019-03-27T16:49:44.451Z,11.70
2019-03-27T16:52:17.786Z,11.50
2019-03-27T16:54:51.267Z,11.60
2019-03-27T16:57:24.266Z,11.50
2019-03-27T16:59:57.665Z,11.50
2019-03-27T17:02:30.619Z,11.60
2019-03-27T17:05:03.935Z,11.70
2019-03-27T17:07:37.196Z,11.70
2019-03-27T17:10:10.814Z,11.60
2019-03-27T17:12:43.468Z,11.50
2019-03-27T17:15:16.612Z,11.50
2019-03-27T17:17:49.214Z,11.50
2019-03-27T17:20:21.714Z,11.50
2019-03-27T17:22:54.235Z,11.40
2019-03-27T17:25:27.193Z,11.30
2019-03-27T17:27:59.976Z,11.20
2019-03-27T17:30:32.554Z,11.10
2019-03-27T17:33:05.494Z,11.10
2019-03-27T17:35:38.734Z,11.10
2019-03-27T17:38:11.440Z,11.20
2019-03-27T17:40:44.894Z,11.20
2019-03-27T17:43:18.515Z,11.10
2019-03-27T17:45:51.556Z,11.10
2019-03-27T17:48:25.454Z,11.00
2019-03-27T17:50:59.074Z,11.00
2019-03-27T17:53:32.253Z,11.00
2019-03-27T17:56:06.596Z,10.90
2019-03-27T17:58:39.396Z,10.80
2019-03-27T18:01:13.010Z,10.80
2019-03-27T18:03:46.153Z,10.80
2019-03-27T18:06:19.136Z,10.70
2019-03-27T18:08:52.555Z,10.70
2019-03-27T18:11:26.571Z,10.50
2019-03-27T18:13:59.494Z,10.50
2019-03-27T18:16:33.197Z,10.50
2019-03-27T18:19:07.014Z,10.40
2019-03-27T18:21:41.114Z,10.40
2019-03-27T18:24:13.516Z,10.40
2019-03-27T18:26:48.074Z,10.40
2019-03-27T18:29:21.034Z,10.30
2019-03-27T18:31:53.458Z,10.30
2019-03-27T18:34:26.673Z,10.20
2019-03-27T18:36:59.733Z,10.20
2019-03-27T18:39:32.414Z,10.10
2019-03-27T18:42:06.593Z,10.10
2019-03-27T18:44:39.914Z,10.00
2019-03-27T18:47:13.373Z,10.10
2019-03-27T18:49:46.973Z,10.00
2019-03-27T18:52:21.793Z,10.00
2019-03-27T18:54:55.060Z,10.00
2019-03-27T18:57:28.898Z,10.00
2019-03-27T19:00:02.813Z,10.00
2019-03-27T19:02:36.938Z,10.00
2019-03-27T19:05:10.409Z,10.00
2019-03-27T19:07:44.233Z,10.00
2019-03-27T19:10:18.934Z,9.90
2019-03-27T19:12:52.478Z,9.90
2019-03-27T19:15:26.014Z,9.80
2019-03-27T19:17:59.235Z,9.90
2019-03-27T19:20:32.594Z,9.90
2019-03-27T19:23:06.154Z,9.90
2019-03-27T19:25:39.614Z,9.90
2019-03-27T19:28:13.194Z,9.80
2019-03-27T19:30:46.733Z,9.70
2019-03-27T19:33:20.054Z,9.70
2019-03-27T19:35:54.074Z,9.80
2019-03-27T19:38:27.814Z,9.70
2019-03-27T19:41:00.834Z,9.70
2019-03-27T19:43:33.234Z,9.70
2019-03-27T19:46:06.314Z,9.70
2019-03-27T19:48:39.734Z,9.70
2019-03-27T19:51:12.737Z,9.70
2019-03-27T19:53:46.234Z,9.70
2019-03-27T19:56:20.194Z,9.70
2019-03-27T19:58:53.794Z,9.60
2019-03-27T20:01:27.394Z,9.70
2019-03-27T20:04:00.694Z,9.60
2019-03-27T20:06:33.515Z,9.60
2019-03-27T20:09:07.573Z,9.70
2019-03-27T20:11:41.192Z,9.70
2019-03-27T20:14:14.874Z,9.70
2019-03-27T20:16:48.075Z,9.70
2019-03-27T20:19:21.515Z,9.70
2019-03-27T20:21:54.354Z,9.60
2019-03-27T20:24:40.540Z,9.60
2019-03-27T20:27:02.954Z,9.60
2019-03-27T20:29:36.055Z,9.60
2019-03-27T20:32:09.387Z,9.60
2019-03-27T20:34:43.436Z,9.60
2019-03-27T20:37:17.034Z,9.60
2019-03-27T20:39:50.033Z,9.60
2019-03-27T20:42:23.873Z,9.60
2019-03-27T20:44:57.073Z,9.60
2019-03-27T20:47:31.253Z,9.60
2019-03-27T20:50:05.173Z,9.60
2019-03-27T20:52:38.633Z,9.60
2019-03-27T20:55:12.254Z,9.60
2019-03-27T20:57:45.213Z,9.60
2019-03-27T21:00:18.818Z,9.70
2019-03-27T21:02:52.394Z,9.70
2019-03-27T21:05:26.393Z,9.70
2019-03-27T21:07:59.276Z,9.70
2019-03-27T21:10:32.676Z,9.70
2019-03-27T21:13:06.174Z,9.60
2019-03-27T21:15:39.514Z,9.70
2019-03-27T21:18:12.474Z,9.70
2019-03-27T21:20:45.314Z,9.70
2019-03-27T21:23:18.074Z,9.70
2019-03-27T21:25:51.274Z,9.60
2019-03-27T21:28:24.194Z,9.60
2019-03-27T21:30:56.474Z,9.50
2019-03-27T21:33:29.314Z,9.60
2019-03-27T21:36:03.138Z,9.70
2019-03-27T21:38:37.115Z,9.70
2019-03-27T21:41:10.895Z,9.70
2019-03-27T21:43:44.154Z,9.70
2019-03-27T21:46:18.157Z,9.50
2019-03-27T21:48:51.295Z,9.50
2019-03-27T21:51:24.453Z,9.50
2019-03-27T21:53:57.633Z,9.60
2019-03-27T21:56:30.513Z,9.50
2019-03-27T21:59:03.542Z,9.50
2019-03-27T22:01:36.573Z,9.60
2019-03-27T22:04:10.257Z,9.70
2019-03-27T22:06:44.013Z,9.80
2019-03-27T22:09:16.730Z,9.90
2019-03-27T22:11:50.333Z,9.90
2019-03-27T22:14:24.074Z,9.70
2019-03-27T22:16:58.173Z,9.50
2019-03-27T22:19:32.392Z,9.50
2019-03-27T22:22:05.717Z,9.60
2019-03-27T22:24:39.293Z,9.60
2019-03-27T22:27:12.334Z,9.50
2019-03-27T22:29:44.953Z,9.50
2019-03-27T22:32:18.537Z,9.50
2019-03-27T22:34:51.494Z,9.50
2019-03-27T22:37:25.094Z,9.50
2019-03-27T22:39:58.754Z,9.50
2019-03-27T22:42:31.914Z,9.60
2019-03-27T22:45:05.359Z,9.50
2019-03-27T22:47:38.654Z,9.40
2019-03-27T22:50:11.694Z,9.40
2019-03-27T22:52:45.194Z,9.40
2019-03-27T22:55:18.476Z,9.50
2019-03-27T22:57:52.217Z,9.50
2019-03-27T23:00:33.794Z,9.50
2019-03-27T23:03:17.753Z,9.50
2019-03-27T23:05:43.834Z,9.40
2019-03-27T23:08:17.694Z,9.40
2019-03-27T23:10:51.940Z,9.30
2019-03-27T23:13:25.594Z,9.10
2019-03-27T23:15:59.614Z,9.20
2019-03-27T23:18:33.574Z,9.10
2019-03-27T23:21:07.135Z,9.10
2019-03-27T23:23:40.714Z,9.10
2019-03-27T23:26:14.733Z,9.10
2019-03-27T23:28:48.058Z,9.00
2019-03-27T23:31:21.915Z,9.10
2019-03-27T23:33:55.934Z,9.10
2019-03-27T23:36:29.133Z,9.10
2019-03-27T23:39:03.313Z,9.10
2019-03-27T23:41:36.895Z,9.10
2019-03-27T23:44:10.353Z,9.20
2019-03-27T23:46:44.833Z,9.00
2019-03-27T23:49:18.273Z,9.00
2019-03-27T23:51:51.753Z,9.00
2019-03-27T23:54:25.935Z,8.90
2019-03-27T23:56:59.433Z,9.00
2019-03-27T23:59:33.173Z,9.00
